Time;durP1;ratioP1;P1;durP2;ratioP2;P2;SDS_P1;SDS_P2;PMS_P1;PMS_P2;Temp;Humidity;BMP_temperature;BMP_pressure;BME280_temperature;BME280_humidity;BME280_pressure;Samples;Min_cycle;Max_cycle;Signal;HPM_P1;HPM_P2
2022/03/23 00:00:07;;;;;;;42.65;35.33;;;7.00;99.90;;;;;;5087266;28;20051;-77
2022/03/23 00:02:34;;;;;;;46.15;36.22;;;7.00;99.90;;;;;;5104435;28;20039;-77
2022/03/23 00:05:00;;;;;;;46.40;38.25;;;7.00;99.90;;;;;;5086161;28;20508;-77
2022/03/23 00:07:26;;;;;;;43.05;36.63;;;7.00;99.90;;;;;;5086626;28;20138;-77
2022/03/23 00:09:52;;;;;;;46.83;37.38;;;7.00;99.90;;;;;;5069671;28;20055;-76
2022/03/23 00:12:18;;;;;;;45.83;37.70;;;6.90;99.90;;;;;;5087615;28;20112;-77
2022/03/23 00:14:44;;;;;;;43.03;35.40;;;6.90;99.90;;;;;;5070087;28;20493;-77
2022/03/23 00:17:09;;;;;;;46.50;38.05;;;6.90;99.90;;;;;;5086778;28;20058;-76
2022/03/23 00:19:35;;;;;;;45.92;37.88;;;6.90;99.90;;;;;;5069678;28;20132;-77
2022/03/23 00:22:03;;;;;;;48.45;37.63;;;6.90;99.90;;;;;;5070222;28;20048;-77
2022/03/23 00:24:29;;;;;;;49.20;39.88;;;6.90;99.90;;;;;;5070533;28;20058;-76
2022/03/23 00:26:54;;;;;;;48.65;39.05;;;6.90;99.90;;;;;;5069845;28;20039;-77
2022/03/23 00:29:20;;;;;;;51.78;41.75;;;7.00;99.90;;;;;;5036683;28;20043;-77
2022/03/23 00:31:46;;;;;;;51.85;41.30;;;7.00;99.90;;;;;;5053374;28;20074;-77
2022/03/23 00:34:11;;;;;;;47.83;39.85;;;7.10;99.90;;;;;;5085855;28;20071;-75
2022/03/23 00:36:38;;;;;;;51.22;40.13;;;7.10;99.90;;;;;;5086585;28;20048;-75
2022/03/23 00:39:04;;;;;;;52.55;40.63;;;7.10;99.90;;;;;;5069780;28;20109;-75
2022/03/23 00:41:30;;;;;;;50.20;41.28;;;7.10;99.90;;;;;;5069436;28;20082;-75
2022/03/23 00:43:56;;;;;;;51.58;41.08;;;7.00;99.90;;;;;;5070149;28;20047;-76
2022/03/23 00:46:24;;;;;;;52.38;40.65;;;6.90;99.90;;;;;;5069196;28;20053;-76
2022/03/23 00:48:50;;;;;;;52.45;42.45;;;6.80;99.90;;;;;;5102939;28;20177;-76
2022/03/23 00:51:16;;;;;;;48.13;38.60;;;6.60;99.90;;;;;;5103210;28;20082;-76
2022/03/23 00:53:42;;;;;;;49.10;40.08;;;6.50;99.90;;;;;;5085779;28;20052;-76
2022/03/23 00:56:09;;;;;;;49.35;40.05;;;6.50;99.90;;;;;;5086627;28;20046;-76
2022/03/23 00:58:35;;;;;;;49.60;38.78;;;6.40;99.90;;;;;;5086170;28;20109;-76
2022/03/23 01:01:02;;;;;;;47.53;38.72;;;6.40;99.90;;;;;;5068167;28;20071;-76
2022/03/23 01:03:27;;;;;;;53.50;41.47;;;6.40;99.90;;;;;;5069278;28;20059;-76
2022/03/23 01:05:56;;;;;;;51.78;41.17;;;6.50;99.90;;;;;;5069995;28;20051;-76
2022/03/23 01:08:22;;;;;;;49.13;40.60;;;6.50;99.90;;;;;;5069557;28;20717;-75
2022/03/23 01:10:48;;;;;;;50.60;39.70;;;6.50;99.90;;;;;;5069262;28;20054;-75
2022/03/23 01:13:14;;;;;;;50.13;41.28;;;6.50;99.90;;;;;;5052887;28;20051;-75
2022/03/23 01:15:40;;;;;;;47.35;39.42;;;6.40;99.90;;;;;;5086813;28;20625;-75
2022/03/23 01:18:06;;;;;;;53.58;40.65;;;6.50;99.90;;;;;;5086663;28;20119;-76
2022/03/23 01:20:32;;;;;;;49.80;39.97;;;6.50;99.90;;;;;;5068114;28;20513;-76
2022/03/23 01:22:58;;;;;;;51.75;40.63;;;6.40;99.90;;;;;;5092708;28;20036;-76
2022/03/23 01:25:24;;;;;;;48.42;38.28;;;6.40;99.90;;;;;;5090806;28;20533;-76
2022/03/23 01:27:49;;;;;;;46.65;38.42;;;6.30;99.90;;;;;;5090547;28;20081;-76
2022/03/23 01:30:16;;;;;;;45.83;37.85;;;6.30;99.90;;;;;;5088943;28;20175;-76
2022/03/23 01:32:44;;;;;;;50.33;40.65;;;6.20;99.90;;;;;;5090627;28;20147;-76
2022/03/23 01:35:13;;;;;;;47.78;37.67;;;6.20;99.90;;;;;;5072550;28;20084;-76
2022/03/23 01:37:39;;;;;;;49.85;39.55;;;6.20;99.90;;;;;;5073470;28;20122;-76
2022/03/23 01:40:08;;;;;;;48.75;40.58;;;6.20;99.90;;;;;;5072609;28;20050;-76
2022/03/23 01:42:34;;;;;;;54.85;41.33;;;6.10;99.90;;;;;;5080424;28;20113;-76
2022/03/23 01:45:00;;;;;;;54.08;42.83;;;6.10;99.90;;;;;;5055417;28;20494;-76
2022/03/23 01:47:26;;;;;;;55.80;44.20;;;6.00;99.90;;;;;;5105055;28;20039;-76
2022/03/23 01:49:55;;;;;;;53.92;42.08;;;6.00;99.90;;;;;;5072769;28;20074;-76
2022/03/23 01:52:24;;;;;;;55.42;43.15;;;5.80;99.90;;;;;;5088741;28;20708;-76
2022/03/23 01:54:50;;;;;;;54.63;43.58;;;5.90;99.90;;;;;;5123836;27;20046;-76
2022/03/23 01:57:18;;;;;;;50.70;42.20;;;5.80;99.90;;;;;;5072262;28;20039;-76
2022/03/23 01:59:44;;;;;;;59.00;46.53;;;5.80;99.90;;;;;;5089294;28;20043;-76
2022/03/23 02:02:10;;;;;;;58.08;44.25;;;5.70;99.90;;;;;;5072582;28;20093;-76
2022/03/23 02:04:36;;;;;;;57.97;44.35;;;5.70;99.90;;;;;;5070676;28;20501;-76
2022/03/23 02:07:03;;;;;;;58.22;44.15;;;5.70;99.90;;;;;;5070297;28;20695;-76
2022/03/23 02:09:30;;;;;;;57.03;44.85;;;5.70;99.90;;;;;;5089469;28;20077;-76
2022/03/23 02:11:57;;;;;;;58.05;46.20;;;5.80;99.90;;;;;;5055889;28;20465;-76
2022/03/23 02:14:23;;;;;;;58.72;45.20;;;5.80;99.90;;;;;;5072476;28;20099;-76
2022/03/23 02:16:51;;;;;;;56.30;44.70;;;5.80;99.90;;;;;;5088427;28;20055;-76
2022/03/23 02:19:18;;;;;;;58.72;45.45;;;5.90;99.90;;;;;;5072193;28;20050;-76
2022/03/23 02:21:48;;;;;;;57.53;44.65;;;5.90;99.90;;;;;;5072247;28;20498;-76
2022/03/23 02:24:15;;;;;;;57.80;43.45;;;5.90;99.90;;;;;;5072745;28;20608;-76
2022/03/23 02:26:42;;;;;;;53.22;42.50;;;5.90;99.90;;;;;;5089034;28;20090;-76
2022/03/23 02:29:09;;;;;;;58.35;46.20;;;5.80;99.90;;;;;;5071651;28;20040;-76
2022/03/23 02:31:35;;;;;;;60.97;47.05;;;5.70;99.90;;;;;;5087651;28;20054;-76
2022/03/23 02:34:03;;;;;;;65.90;47.85;;;5.60;99.90;;;;;;5087972;28;20089;-76
2022/03/23 02:36:29;;;;;;;59.22;47.63;;;5.60;99.90;;;;;;5123209;27;20048;-76
2022/03/23 02:38:58;;;;;;;58.13;45.10;;;5.50;99.90;;;;;;5072007;28;20100;-76
2022/03/23 02:41:24;;;;;;;59.33;47.88;;;5.50;99.90;;;;;;5123155;27;20096;-76
2022/03/23 02:43:50;;;;;;;62.95;47.75;;;5.40;99.90;;;;;;5088389;28;20044;-76
2022/03/23 02:46:18;;;;;;;57.35;46.80;;;5.40;99.90;;;;;;5071388;28;20582;-76
2022/03/23 02:48:45;;;;;;;60.13;46.67;;;5.40;99.90;;;;;;5071406;28;20047;-76
2022/03/23 02:51:11;;;;;;;60.40;46.00;;;5.30;99.90;;;;;;5081081;28;20067;-75
2022/03/23 03:02:35;;;;;;;54.58;44.20;;;5.30;99.90;;;;;;5083499;28;20051;-76
2022/03/23 03:05:01;;;;;;;57.85;44.92;;;5.20;99.90;;;;;;5070694;28;20083;-76
2022/03/23 03:07:26;;;;;;;59.05;45.40;;;5.10;99.90;;;;;;5054521;28;20051;-75
2022/03/23 03:09:52;;;;;;;61.20;47.65;;;5.10;99.90;;;;;;5052817;28;20051;-76
2022/03/23 03:12:18;;;;;;;58.40;46.60;;;5.10;99.90;;;;;;5069786;28;20077;-76
2022/03/23 03:14:44;;;;;;;58.00;46.35;;;5.20;99.90;;;;;;5053005;28;20134;-75
2022/03/23 03:17:10;;;;;;;62.65;47.33;;;5.10;99.90;;;;;;5069400;28;20052;-76
2022/03/23 03:19:36;;;;;;;60.47;47.80;;;5.10;99.90;;;;;;5085884;28;20077;-76
2022/03/23 03:22:02;;;;;;;64.18;52.55;;;5.10;99.90;;;;;;5086486;28;20046;-75
2022/03/23 03:24:28;;;;;;;61.53;49.72;;;5.00;99.90;;;;;;5069316;28;20077;-76
2022/03/23 03:26:58;;;;;;;62.22;49.95;;;5.00;99.90;;;;;;5074480;28;20036;-76
2022/03/23 03:29:23;;;;;;;61.00;50.08;;;5.00;99.90;;;;;;5079795;28;20044;-76
2022/03/23 03:31:50;;;;;;;65.85;53.05;;;5.00;99.90;;;;;;5040502;28;20054;-77
2022/03/23 03:34:16;;;;;;;63.38;51.40;;;5.10;99.90;;;;;;5084980;28;20032;-76
2022/03/23 03:36:41;;;;;;;62.53;49.97;;;5.10;99.90;;;;;;5067463;28;20079;-76
2022/03/23 03:39:08;;;;;;;61.08;49.15;;;5.10;99.90;;;;;;5066841;28;20039;-76
2022/03/23 03:41:34;;;;;;;58.65;47.58;;;5.00;99.90;;;;;;5068143;28;20628;-76
2022/03/23 03:44:01;;;;;;;54.60;45.80;;;5.00;99.90;;;;;;5083798;28;20529;-76
2022/03/23 03:46:26;;;;;;;60.83;47.22;;;4.90;99.90;;;;;;5068541;28;20107;-76
2022/03/23 03:48:53;;;;;;;62.30;51.60;;;4.80;99.90;;;;;;5068366;28;20035;-76
2022/03/23 03:51:19;;;;;;;71.75;54.72;;;4.70;99.90;;;;;;5068438;28;20040;-76
2022/03/23 03:53:45;;;;;;;69.22;55.88;;;4.70;99.90;;;;;;5067770;28;20089;-76
2022/03/23 03:56:11;;;;;;;65.45;51.97;;;4.70;99.90;;;;;;5068587;28;20315;-75
2022/03/23 03:58:38;;;;;;;71.22;54.63;;;4.70;99.90;;;;;;5085091;28;20051;-76
2022/03/23 04:01:04;;;;;;;69.13;55.65;;;4.70;99.90;;;;;;5084282;28;20047;-76
2022/03/23 04:03:30;;;;;;;66.25;52.88;;;4.70;99.90;;;;;;5084004;28;20123;-76
2022/03/23 04:05:56;;;;;;;66.82;50.78;;;4.70;99.90;;;;;;5085269;28;20146;-75
2022/03/23 04:08:21;;;;;;;61.05;49.63;;;4.70;99.90;;;;;;5085444;28;20047;-76
2022/03/23 04:10:47;;;;;;;62.92;53.63;;;4.60;99.90;;;;;;5068222;28;20401;-75
2022/03/23 04:13:13;;;;;;;63.22;50.85;;;4.60;99.90;;;;;;5082129;28;20108;-76
2022/03/23 04:15:39;;;;;;;76.53;58.35;;;4.50;99.90;;;;;;5068020;28;20661;-76
2022/03/23 04:18:05;;;;;;;65.03;53.53;;;4.50;99.90;;;;;;5067413;28;20119;-76
2022/03/23 04:20:32;;;;;;;65.05;52.15;;;4.50;99.90;;;;;;5072759;28;20086;-76
2022/03/23 04:22:58;;;;;;;68.40;54.85;;;4.60;99.90;;;;;;5066619;28;20768;-76
2022/03/23 04:25:23;;;;;;;70.80;54.42;;;4.60;99.90;;;;;;5084581;28;20036;-76
2022/03/23 04:27:50;;;;;;;65.72;54.08;;;4.60;99.90;;;;;;5049884;28;20043;-75
2022/03/23 04:30:19;;;;;;;68.10;56.13;;;4.60;99.90;;;;;;5062586;28;20036;-76
2022/03/23 04:32:46;;;;;;;72.47;55.85;;;4.60;99.90;;;;;;5050529;28;20794;-76
2022/03/23 04:35:13;;;;;;;63.80;51.15;;;4.60;99.90;;;;;;5066612;28;20035;-76
2022/03/23 04:37:43;;;;;;;73.65;57.08;;;4.60;99.90;;;;;;5065468;28;20047;-76
2022/03/23 04:40:11;;;;;;;72.32;57.40;;;4.50;99.90;;;;;;5065939;28;20051;-77
2022/03/23 04:42:38;;;;;;;72.70;59.47;;;4.50;99.90;;;;;;5065707;28;20134;-77
2022/03/23 04:45:06;;;;;;;72.43;57.90;;;4.50;99.90;;;;;;5067802;28;20077;-76
2022/03/23 04:47:33;;;;;;;74.00;59.90;;;4.40;99.90;;;;;;5067388;28;20440;-76
2022/03/23 04:50:00;;;;;;;67.95;56.97;;;4.50;99.90;;;;;;5067386;28;20514;-76
2022/03/23 04:52:30;;;;;;;66.75;54.95;;;4.50;99.90;;;;;;5084266;28;20052;-76
2022/03/23 04:54:58;;;;;;;68.45;54.22;;;4.40;99.90;;;;;;5086489;28;20210;-77
2022/03/23 04:57:28;;;;;;;65.30;54.50;;;4.40;99.90;;;;;;5088866;28;20051;-77
2022/03/23 04:59:54;;;;;;;69.97;55.53;;;4.40;99.90;;;;;;5055453;28;20039;-77
2022/03/23 05:02:20;;;;;;;72.15;58.05;;;4.40;99.90;;;;;;5053513;28;20039;-77
2022/03/23 05:04:46;;;;;;;69.97;55.55;;;4.40;99.90;;;;;;5053976;28;20055;-77
2022/03/23 05:07:13;;;;;;;74.95;60.03;;;4.30;99.90;;;;;;5088286;28;20074;-77
2022/03/23 05:09:39;;;;;;;69.50;55.72;;;4.30;99.90;;;;;;5088167;28;20104;-77
2022/03/23 05:12:05;;;;;;;68.65;55.97;;;4.30;99.90;;;;;;5088350;28;20039;-77
2022/03/23 05:14:31;;;;;;;64.88;54.25;;;4.30;99.90;;;;;;5070296;28;20137;-77
2022/03/23 05:16:57;;;;;;;66.28;53.63;;;4.20;99.90;;;;;;5071244;28;20035;-76
2022/03/23 05:19:25;;;;;;;64.63;52.25;;;4.20;99.90;;;;;;5070923;28;20629;-77
2022/03/23 05:21:51;;;;;;;65.40;53.72;;;4.10;99.90;;;;;;5088774;28;20062;-76
2022/03/23 05:24:17;;;;;;;71.10;56.58;;;4.10;99.90;;;;;;5087135;28;20485;-76
2022/03/23 05:26:43;;;;;;;70.72;57.42;;;4.10;99.90;;;;;;5070708;28;20032;-77
2022/03/23 05:29:09;;;;;;;69.88;57.00;;;4.10;99.90;;;;;;5070890;28;20131;-77
2022/03/23 05:31:35;;;;;;;70.53;56.28;;;4.10;99.90;;;;;;5088329;28;20054;-75
2022/03/23 05:34:01;;;;;;;74.93;59.65;;;4.10;99.90;;;;;;5071358;28;20040;-75
2022/03/23 05:36:27;;;;;;;71.80;58.22;;;4.10;99.90;;;;;;5071330;28;20071;-77
2022/03/23 05:38:52;;;;;;;70.57;56.08;;;4.10;99.90;;;;;;5071188;28;20438;-76
2022/03/23 05:41:18;;;;;;;65.55;54.50;;;4.20;99.90;;;;;;5071575;28;20103;-76
2022/03/23 05:43:44;;;;;;;67.70;53.25;;;4.20;99.90;;;;;;5054499;28;20051;-76
2022/03/23 05:46:10;;;;;;;69.45;56.13;;;4.10;99.90;;;;;;5088458;28;20407;-77
2022/03/23 05:48:36;;;;;;;65.65;56.05;;;4.10;99.90;;;;;;5088409;28;20134;-77
2022/03/23 05:51:01;;;;;;;69.43;56.80;;;4.10;99.90;;;;;;5071840;28;20055;-77
2022/03/23 05:53:30;;;;;;;73.90;60.17;;;4.20;99.90;;;;;;5070580;28;20039;-77
2022/03/23 05:55:56;;;;;;;68.93;57.83;;;4.40;99.90;;;;;;5086970;28;20113;-76
2022/03/23 05:58:22;;;;;;;70.72;57.80;;;4.50;99.90;;;;;;5084772;28;20039;-77
2022/03/23 06:00:48;;;;;;;63.15;53.90;;;4.50;99.90;;;;;;5079045;28;20289;-77
2022/03/23 06:03:14;;;;;;;66.68;55.25;;;4.60;99.90;;;;;;5064210;28;20104;-77
2022/03/23 06:05:40;;;;;;;67.80;54.50;;;4.70;99.90;;;;;;5080181;28;20044;-76
2022/03/23 06:08:06;;;;;;;67.35;55.78;;;4.70;99.90;;;;;;5082165;28;20044;-76
2022/03/23 06:10:32;;;;;;;62.55;53.45;;;4.80;99.90;;;;;;5064867;28;20131;-76
2022/03/23 06:12:58;;;;;;;62.92;52.47;;;5.00;99.90;;;;;;5071159;28;20130;-76
2022/03/23 06:15:24;;;;;;;67.13;56.00;;;4.90;99.90;;;;;;5069984;28;20055;-76
2022/03/23 06:17:49;;;;;;;67.63;55.85;;;4.90;99.90;;;;;;5069263;28;20559;-76
2022/03/23 06:20:16;;;;;;;62.63;53.28;;;5.00;99.90;;;;;;5070610;28;20138;-76
2022/03/23 06:22:42;;;;;;;64.15;54.70;;;4.90;99.90;;;;;;5086468;28;20376;-76
2022/03/23 06:25:08;;;;;;;62.65;54.35;;;4.90;99.90;;;;;;5067806;28;20043;-76
2022/03/23 06:27:34;;;;;;;65.15;56.15;;;4.90;99.90;;;;;;5070707;28;20051;-76
2022/03/23 06:30:01;;;;;;;68.95;58.20;;;5.00;99.90;;;;;;5087036;28;20413;-76
2022/03/23 06:32:27;;;;;;;63.05;52.95;;;5.00;99.90;;;;;;5086490;28;20051;-78
2022/03/23 06:34:53;;;;;;;66.88;55.15;;;5.10;99.90;;;;;;5069431;28;20043;-77
2022/03/23 06:37:19;;;;;;;68.97;57.10;;;5.10;99.90;;;;;;5069443;28;20553;-77
2022/03/23 06:39:44;;;;;;;67.72;55.53;;;5.20;99.90;;;;;;5081157;28;20443;-75
2022/03/23 06:42:10;;;;;;;63.70;54.78;;;5.20;99.90;;;;;;5063747;28;20080;-75
2022/03/23 06:44:38;;;;;;;71.05;57.83;;;5.30;99.90;;;;;;5067886;28;20523;-73
2022/03/23 06:47:04;;;;;;;68.75;59.65;;;5.40;99.90;;;;;;5068003;28;20594;-74
2022/03/23 06:49:30;;;;;;;69.75;59.05;;;5.50;99.90;;;;;;5081955;28;20053;-73
2022/03/23 06:51:58;;;;;;;72.50;60.90;;;5.60;99.90;;;;;;5064957;28;20047;-73
2022/03/23 06:54:24;;;;;;;65.07;57.88;;;5.70;99.90;;;;;;5042241;28;21011;-73
2022/03/23 06:56:51;;;;;;;66.38;55.70;;;5.80;99.90;;;;;;5082791;28;20093;-73
2022/03/23 06:59:20;;;;;;;66.45;55.60;;;6.00;99.90;;;;;;5094648;28;20487;-74
2022/03/23 07:01:46;;;;;;;63.63;54.72;;;6.10;99.90;;;;;;5109583;27;20055;-74
2022/03/23 07:04:12;;;;;;;66.05;56.30;;;6.20;99.90;;;;;;5102238;27;20035;-75
2022/03/23 07:06:38;;;;;;;66.03;54.40;;;6.30;99.90;;;;;;5058020;28;20071;-74
2022/03/23 07:11:48;;;;;;;70.07;57.10;;;6.60;99.90;;;;;;5054585;28;20131;-73
2022/03/23 07:14:13;;;;;;;64.75;53.78;;;6.70;99.90;;;;;;5061968;28;20501;-73
2022/03/23 07:16:41;;;;;;;60.13;50.63;;;6.90;99.90;;;;;;5083113;28;20096;-74
2022/03/23 07:19:07;;;;;;;58.85;50.17;;;7.10;99.90;;;;;;5081820;28;20052;-73
2022/03/23 07:21:33;;;;;;;58.97;50.33;;;7.40;99.90;;;;;;5082909;28;20551;-73
2022/03/23 07:23:58;;;;;;;57.70;48.40;;;7.60;99.90;;;;;;5033027;28;20062;-72
2022/03/23 07:26:24;;;;;;;54.28;47.30;;;7.80;99.90;;;;;;5065928;28;20490;-72
2022/03/23 07:28:50;;;;;;;53.75;45.50;;;8.10;99.90;;;;;;5064941;28;20129;-73
2022/03/23 07:31:16;;;;;;;58.78;45.70;;;8.30;99.90;;;;;;5066052;28;20035;-73
2022/03/23 07:33:42;;;;;;;52.72;43.72;;;8.50;99.90;;;;;;5065834;28;20105;-73
2022/03/23 07:36:08;;;;;;;51.90;42.80;;;8.70;99.90;;;;;;5079977;28;20047;-73
2022/03/23 07:38:34;;;;;;;51.58;43.38;;;9.00;99.90;;;;;;5065272;28;20081;-73
2022/03/23 07:41:00;;;;;;;50.47;43.10;;;9.20;99.90;;;;;;5064315;28;20036;-73
2022/03/23 07:43:26;;;;;;;48.58;41.25;;;9.50;99.90;;;;;;5077726;28;20055;-73
2022/03/23 07:45:51;;;;;;;46.38;39.33;;;9.70;99.90;;;;;;5042130;28;20043;-74
2022/03/23 07:48:17;;;;;;;46.40;39.55;;;9.90;99.90;;;;;;5062027;28;20062;-73
2022/03/23 07:50:43;;;;;;;42.60;36.45;;;10.00;99.90;;;;;;5058140;28;20143;-73
2022/03/23 07:53:09;;;;;;;44.28;36.25;;;10.20;99.90;;;;;;5059565;28;20144;-72
2022/03/23 07:55:35;;;;;;;42.42;35.25;;;10.50;99.90;;;;;;5063906;28;20051;-74
2022/03/23 07:58:00;;;;;;;42.63;33.67;;;10.60;99.90;;;;;;5058979;28;20032;-73
2022/03/23 08:00:26;;;;;;;44.38;34.17;;;10.90;99.90;;;;;;5057349;28;20118;-72
2022/03/23 08:02:52;;;;;;;44.25;33.75;;;11.00;99.90;;;;;;5037109;28;20138;-73
2022/03/23 08:05:18;;;;;;;39.40;31.52;;;11.30;99.90;;;;;;5076075;28;20055;-72
2022/03/23 08:07:45;;;;;;;46.15;34.30;;;11.50;99.90;;;;;;5057651;28;20098;-73
2022/03/23 08:10:11;;;;;;;43.08;31.63;;;11.80;99.90;;;;;;5076270;28;20032;-75
2022/03/23 08:12:37;;;;;;;40.70;31.85;;;12.00;99.90;;;;;;5057095;28;20109;-73
2022/03/23 08:15:03;;;;;;;40.42;31.65;;;12.20;99.90;;;;;;5057829;28;20048;-72
2022/03/23 08:17:29;;;;;;;37.67;30.83;;;12.50;99.90;;;;;;5064138;28;20076;-72
2022/03/23 08:22:39;;;;;;;36.55;30.75;;;12.90;96.70;;;;;;5078775;28;20090;-74
2022/03/23 08:25:05;;;;;;;37.38;30.30;;;13.10;96.10;;;;;;5063551;28;20067;-73
2022/03/23 08:27:31;;;;;;;36.30;28.88;;;13.40;94.20;;;;;;5062440;28;20055;-73
2022/03/23 08:29:57;;;;;;;36.75;28.90;;;13.60;92.60;;;;;;5062291;28;20498;-73
2022/03/23 08:32:23;;;;;;;34.53;28.17;;;13.80;90.10;;;;;;5062240;28;20051;-73
2022/03/23 08:34:49;;;;;;;30.90;27.02;;;13.90;83.50;;;;;;5080114;28;20131;-73
2022/03/23 08:37:16;;;;;;;30.92;27.63;;;14.10;75.80;;;;;;5046016;28;20516;-73
2022/03/23 08:39:41;;;;;;;31.40;26.42;;;14.20;74.50;;;;;;5064170;28;20059;-73
2022/03/23 08:42:07;;;;;;;32.88;27.55;;;14.30;73.60;;;;;;5063427;28;20231;-73
2022/03/23 08:44:33;;;;;;;34.47;26.42;;;14.50;71.90;;;;;;5051728;28;20156;-74
2022/03/23 08:47:00;;;;;;;28.55;25.45;;;14.60;71.00;;;;;;5058482;28;20135;-74
2022/03/23 08:49:25;;;;;;;32.60;27.02;;;14.80;68.60;;;;;;5058377;28;20131;-74
2022/03/23 08:51:52;;;;;;;31.77;25.50;;;14.90;66.50;;;;;;5046108;28;20474;-73
2022/03/23 08:54:17;;;;;;;30.95;26.15;;;15.00;66.80;;;;;;5074757;28;20059;-74
2022/03/23 08:56:43;;;;;;;32.47;25.88;;;15.20;66.40;;;;;;5082035;28;20040;-74
2022/03/23 08:59:09;;;;;;;34.00;27.10;;;15.40;64.80;;;;;;5065333;28;20047;-73
2022/03/23 09:01:35;;;;;;;28.60;24.48;;;15.50;63.50;;;;;;5042993;28;20383;-74
2022/03/23 09:04:04;;;;;;;27.15;24.23;;;15.60;62.20;;;;;;5078274;28;20055;-74
2022/03/23 09:06:30;;;;;;;27.60;24.42;;;15.70;61.90;;;;;;5039342;28;20040;-74
2022/03/23 09:08:56;;;;;;;33.88;25.15;;;15.80;60.80;;;;;;5041378;28;20043;-74
2022/03/23 09:11:25;;;;;;;26.42;23.63;;;15.80;59.90;;;;;;5062841;28;20036;-74
2022/03/23 09:13:54;;;;;;;26.52;22.63;;;15.90;58.90;;;;;;5048054;28;20077;-73
2022/03/23 09:16:19;;;;;;;27.40;21.50;;;16.10;57.90;;;;;;5064674;28;20150;-72
2022/03/23 09:18:45;;;;;;;23.95;21.52;;;16.20;57.20;;;;;;5059509;28;20108;-74
2022/03/23 09:21:11;;;;;;;22.50;20.08;;;16.30;55.40;;;;;;5080584;28;20059;-74
2022/03/23 09:23:37;;;;;;;25.25;20.98;;;16.40;54.90;;;;;;5058879;28;20083;-73
2022/03/23 09:26:04;;;;;;;25.42;20.92;;;16.50;53.80;;;;;;5064252;28;20040;-74
2022/03/23 09:28:30;;;;;;;23.48;20.98;;;16.60;52.50;;;;;;5075074;28;20063;-74
2022/03/23 09:30:56;;;;;;;23.35;20.17;;;16.70;52.70;;;;;;5063571;28;20671;-74
2022/03/23 09:33:22;;;;;;;24.17;21.40;;;16.80;51.80;;;;;;5040353;28;20040;-75
2022/03/23 09:35:48;;;;;;;24.85;21.05;;;16.80;51.30;;;;;;5094666;28;20052;-73
2022/03/23 09:38:14;;;;;;;23.42;20.85;;;16.90;50.20;;;;;;5043350;28;20448;-73
2022/03/23 09:40:40;;;;;;;24.42;20.42;;;16.90;49.90;;;;;;5062287;28;20524;-73
2022/03/23 09:43:08;;;;;;;22.20;19.83;;;16.90;49.70;;;;;;5078986;28;20352;-74
2022/03/23 09:48:09;;;;;;;23.95;19.98;;;17.10;49.80;;;;;;5076897;28;20526;-75
2022/03/23 09:50:37;;;;;;;22.17;19.77;;;17.20;50.40;;;;;;5080067;28;20048;-74
2022/03/23 09:53:03;;;;;;;22.48;18.92;;;17.30;48.00;;;;;;5082655;28;20125;-74
2022/03/23 09:55:30;;;;;;;21.20;18.98;;;17.30;45.00;;;;;;5063853;28;20559;-75
2022/03/23 09:57:58;;;;;;;23.00;19.27;;;17.20;44.70;;;;;;5113605;27;20056;-74
2022/03/23 10:00:27;;;;;;;21.17;19.00;;;17.20;45.00;;;;;;5066274;28;20119;-75
2022/03/23 10:03:12;;;;;;;20.00;17.90;;;17.20;44.20;;;;;;5067981;28;20339;-71
2022/03/23 10:05:56;;;;;;;19.77;17.65;;;17.20;42.80;;;;;;5084578;28;20471;-72
2022/03/23 10:08:59;;;;;;;20.83;16.83;;;17.30;41.90;;;;;;5066003;28;20040;-73
2022/03/23 10:12:03;;;;;;;20.80;16.08;;;17.30;40.90;;;;;;5084083;28;20102;-74
2022/03/23 10:14:50;;;;;;;22.25;15.57;;;17.30;42.10;;;;;;5066757;28;20055;-74
2022/03/23 10:17:53;;;;;;;20.90;16.83;;;17.30;41.90;;;;;;5065714;28;20289;-74
2022/03/23 10:20:19;;;;;;;20.23;15.70;;;17.40;42.50;;;;;;5084273;28;20048;-72
2022/03/23 10:22:53;;;;;;;19.88;16.15;;;17.50;41.30;;;;;;5087514;28;20583;-72
2022/03/23 10:25:26;;;;;;;21.13;16.17;;;17.50;40.70;;;;;;5086830;28;20047;-74
2022/03/23 10:27:54;;;;;;;20.33;16.35;;;17.50;40.20;;;;;;5087135;28;20058;-74
2022/03/23 10:30:38;;;;;;;19.55;16.15;;;17.50;40.60;;;;;;5085552;28;20133;-73
2022/03/23 10:33:14;;;;;;;23.30;17.85;;;17.60;41.50;;;;;;5080081;28;20047;-74
2022/03/23 10:35:40;;;;;;;19.95;15.38;;;17.70;41.40;;;;;;5080247;28;20497;-74
2022/03/23 10:38:21;;;;;;;19.45;13.93;;;17.80;41.30;;;;;;5083658;28;20095;-73
2022/03/23 10:40:49;;;;;;;18.80;14.35;;;17.80;40.30;;;;;;5100185;28;20055;-74
2022/03/23 10:43:21;;;;;;;21.80;15.30;;;17.90;40.10;;;;;;5086454;28;20046;-74
2022/03/23 10:45:47;;;;;;;19.55;14.88;;;17.90;39.80;;;;;;5086652;28;20047;-74
2022/03/23 10:48:15;;;;;;;18.67;13.90;;;17.90;41.00;;;;;;5085909;28;20149;-74
2022/03/23 10:50:56;;;;;;;22.13;14.95;;;18.00;41.80;;;;;;5066702;28;20118;-75
2022/03/23 10:53:34;;;;;;;18.95;13.45;;;18.10;41.90;;;;;;5082118;28;20052;-74
2022/03/23 10:56:01;;;;;;;21.30;14.82;;;18.20;41.90;;;;;;5084381;28;20077;-75
2022/03/23 10:58:27;;;;;;;17.95;13.52;;;18.40;41.20;;;;;;5067958;28;20136;-72
2022/03/23 11:00:55;;;;;;;17.58;13.73;;;18.50;42.20;;;;;;5069297;28;20040;-72
2022/03/23 11:03:34;;;;;;;24.33;15.75;;;18.60;41.90;;;;;;5068622;28;20051;-72
2022/03/23 11:06:00;;;;;;;24.17;16.27;;;18.70;41.10;;;;;;5101386;28;20418;-73
2022/03/23 11:08:26;;;;;;;17.02;11.93;;;18.70;40.80;;;;;;5068019;28;20303;-72
2022/03/23 11:16:38;;;;;;;21.25;12.80;;;18.70;39.20;;;;;;5085728;28;20059;-81
2022/03/23 11:19:18;;;;;;;20.70;12.60;;;18.80;40.40;;;;;;5067856;28;20059;-73
2022/03/23 11:22:09;;;;;;;22.48;13.38;;;18.80;40.20;;;;;;5067368;28;20114;-74
2022/03/23 11:24:46;;;;;;;22.30;12.43;;;18.90;39.90;;;;;;5085507;28;20104;-73
2022/03/23 11:27:18;;;;;;;22.65;13.45;;;18.90;40.00;;;;;;5067096;28;20031;-73
2022/03/23 11:29:46;;;;;;;22.98;14.15;;;18.90;40.10;;;;;;5068163;28;20075;-74
2022/03/23 11:32:18;;;;;;;24.20;12.75;;;18.80;39.70;;;;;;5085851;28;20056;-73
2022/03/23 11:34:48;;;;;;;23.52;12.45;;;18.70;39.30;;;;;;5082847;28;20130;-73
2022/03/23 11:37:18;;;;;;;21.17;12.75;;;18.70;40.40;;;;;;5067263;28;21380;-73
2022/03/23 11:39:45;;;;;;;21.10;12.15;;;18.70;39.80;;;;;;5068142;28;20047;-73
2022/03/23 11:42:13;;;;;;;20.17;9.10;;;18.70;39.70;;;;;;5085321;28;20540;-72
2022/03/23 11:44:40;;;;;;;24.42;11.32;;;18.80;39.70;;;;;;5085416;28;20061;-73
2022/03/23 11:47:30;;;;;;;23.60;9.80;;;18.80;39.50;;;;;;5067358;28;20093;-72
2022/03/23 11:50:22;;;;;;;26.35;9.32;;;18.80;40.40;;;;;;5117655;27;20034;-71
2022/03/23 11:53:17;;;;;;;26.27;7.90;;;18.90;40.90;;;;;;5083758;28;20091;-73
2022/03/23 11:55:50;;;;;;;18.75;7.45;;;18.90;38.90;;;;;;5068455;28;20050;-82
2022/03/23 11:58:23;;;;;;;22.35;9.55;;;18.80;39.00;;;;;;5068804;28;20081;-82
2022/03/23 12:00:54;;;;;;;22.63;11.65;;;18.70;39.40;;;;;;5069761;28;20036;-81
2022/03/23 12:03:53;;;;;;;22.77;11.13;;;18.70;40.30;;;;;;5083767;28;20047;-81
2022/03/23 12:06:23;;;;;;;25.20;9.50;;;18.80;40.50;;;;;;5052414;28;20054;-81
2022/03/23 12:09:00;;;;;;;25.83;10.23;;;19.00;40.30;;;;;;5067884;28;20043;-80
2022/03/23 12:11:44;;;;;;;17.73;10.95;;;19.00;38.80;;;;;;5084236;28;20262;-77
2022/03/23 12:14:20;;;;;;;18.60;10.45;;;18.90;39.20;;;;;;5068142;28;20119;-80
2022/03/23 12:16:46;;;;;;;20.55;10.57;;;18.90;39.50;;;;;;5067181;28;20039;-80
2022/03/23 12:19:17;;;;;;;19.38;10.38;;;19.00;39.70;;;;;;5083715;28;20059;-79
2022/03/23 12:21:55;;;;;;;21.60;10.10;;;19.10;39.80;;;;;;5067999;28;20104;-82
2022/03/23 12:24:56;;;;;;;17.20;11.05;;;19.10;39.50;;;;;;5085388;28;20058;-82
2022/03/23 12:27:46;;;;;;;17.60;11.82;;;19.00;38.50;;;;;;5083566;28;20047;-75
2022/03/23 12:30:22;;;;;;;23.73;11.68;;;19.00;39.60;;;;;;5068015;28;20055;-75
2022/03/23 12:32:48;;;;;;;20.02;11.93;;;19.00;39.40;;;;;;5083257;28;20047;-73
2022/03/23 12:35:34;;;;;;;18.88;9.02;;;19.10;39.50;;;;;;5084340;28;20092;-74
2022/03/23 12:38:02;;;;;;;25.73;9.30;;;19.20;39.70;;;;;;5067601;28;20048;-71
2022/03/23 12:40:39;;;;;;;20.67;8.65;;;19.20;39.50;;;;;;5084312;28;20474;-74
2022/03/23 12:43:05;;;;;;;18.73;8.23;;;19.20;38.70;;;;;;5068051;28;20120;-73
2022/03/23 12:45:39;;;;;;;19.33;6.28;;;19.30;39.10;;;;;;5050547;28;20653;-72
2022/03/23 12:57:49;;;;;;;21.15;8.63;;;19.40;38.80;;;;;;5083409;28;20116;-74
2022/03/23 12:59:23;;;;;;;19.38;8.32;;;19.40;39.20;;;;;;5084653;28;20048;-70
2022/03/23 13:02:19;;;;;;;18.63;9.57;;;19.50;39.90;;;;;;5050534;28;20168;-74
2022/03/23 13:04:45;;;;;;;21.55;9.63;;;19.60;38.70;;;;;;5082142;28;20145;-74
2022/03/23 13:07:30;;;;;;;17.95;8.90;;;19.50;38.60;;;;;;5067155;28;20048;-74
2022/03/23 13:09:57;;;;;;;22.42;9.63;;;19.60;38.30;;;;;;5068655;28;20035;-74